This is the latest recevied weather packets stored in our database for station/object OE3APM-13. If no packets are shown the sender has not sent any weather packets the latest 1 day(s).
| Time | Temp. | Humidity | Pressure | Rain* | Wind** | Luminosity | Snow |
|---|---|---|---|---|---|---|---|
| 1836274785 | 13.89° C | 89% | 1024.1 hPa | 0 mm | 1.79 m/s, 70° | 0 W/m² | - |
| 1836274479 | 13.89° C | 90% | 1024.1 hPa | 0 mm | 1.34 m/s, 51° | 0 W/m² | - |
| 1836274342 | 13.89° C | 89% | 1024 hPa | 0 mm | 1.34 m/s, 86° | 0 W/m² | - |
| 1836274170 | 13.89° C | 89% | 1024.1 hPa | 0 mm | 1.34 m/s, 78° | 0 W/m² | - |
| 1836273868 | 13.89° C | 89% | 1024.1 hPa | 0 mm | 1.34 m/s, 50° | 0 W/m² | - |
| 1778035186 | 10.56° C | 86% | 1007.4 hPa | 0 mm | 0.45 m/s, 227° | 0 W/m² | - |
| 1778034886 | 11.11° C | 88% | 1007.5 hPa | 0 mm | 0.45 m/s, 223° | 0 W/m² | - |
| 1778034585 | 11.11° C | 89% | 1007.5 hPa | 0 mm | 0.89 m/s, 221° | 0 W/m² | - |
| 1778034281 | 11.11° C | 89% | 1007.5 hPa | 0 mm | 1.34 m/s, 228° | 0 W/m² | - |
| 1778033984 | 11.11° C | 90% | 1007.5 hPa | 0 mm | 1.34 m/s, 222° | 0 W/m² | - |
| 1778033681 | 11.11° C | 89% | 1007.5 hPa | 0 mm | 0.89 m/s, 236° | 0 W/m² | - |
| 1778033381 | 11.11° C | 89% | 1007.5 hPa | 0 mm | 0.89 m/s, 239° | 0 W/m² | - |
| 1778033082 | 11.11° C | 89% | 1007.5 hPa | 0 mm | 0.89 m/s, 239° | 0 W/m² | - |
| 1778032781 | 11.67° C | 90% | 1007.6 hPa | 0 mm | 0.89 m/s, 239° | 0 W/m² | - |
| 1778032480 | 11.67° C | 90% | 1007.6 hPa | 0 mm | 1.34 m/s, 239° | 0 W/m² | - |
| 1778032176 | 11.67° C | 90% | 1007.6 hPa | 0 mm | 1.34 m/s, 247° | 0 W/m² | - |
| 1778031876 | 11.67° C | 89% | 1007.6 hPa | 0 mm | 0.89 m/s, 259° | 0 W/m² | - |
| 1778031577 | 11.67° C | 89% | 1007.6 hPa | 0 mm | 0.89 m/s, 258° | 0 W/m² | - |
| 1778031275 | 11.67° C | 89% | 1007.6 hPa | 0 mm | 0.89 m/s, 263° | 0 W/m² | - |
| 1778030970 | 11.67° C | 88% | 1007.6 hPa | 0 mm | 0.89 m/s, 261° | 0 W/m² | - |
| 1778030672 | 11.67° C | 88% | 1007.6 hPa | 0 mm | 0.45 m/s, 259° | 0 W/m² | - |
| 1778030372 | 11.67° C | 87% | 1007.6 hPa | 0 mm | 0 m/s | 0 W/m² | - |
| 1778030072 | 11.67° C | 87% | 1007.6 hPa | 0 mm | 0.45 m/s, 258° | 0 W/m² | - |
| 1778029769 | 11.67° C | 87% | 1007.6 hPa | 0 mm | 0.45 m/s, 258° | 0 W/m² | - |
| 1778029468 | 12.22° C | 87% | 1007.6 hPa | 0 mm | 0.45 m/s, 259° | 0 W/m² | - |
* Rain latest hour (hover to see other rain measurements)
** Current wind speed in m/s (hover to see current wind gust speed)